Time;durP1;ratioP1;P1;durP2;ratioP2;P2;SDS_P1;SDS_P2;PMS_P1;PMS_P2;Temp;Humidity;BMP_temperature;BMP_pressure;BME280_temperature;BME280_humidity;BME280_pressure;Samples;Min_cycle;Max_cycle;Signal;HPM_P1;HPM_P2
2023/01/16 00:01:50;;;;;;;1.17;1.07;;;4.60;97.30;;;;;;4998018;28;20417;-84
2023/01/16 00:04:16;;;;;;;1.03;0.93;;;4.60;97.30;;;;;;4997746;28;20511;-84
2023/01/16 00:06:42;;;;;;;1.00;0.90;;;4.60;97.30;;;;;;4998032;28;21167;-84
2023/01/16 00:09:07;;;;;;;2.10;1.00;;;4.50;97.30;;;;;;4997628;28;20268;-84
2023/01/16 00:11:33;;;;;;;1.10;1.00;;;4.50;97.30;;;;;;4998504;28;20181;-85
2023/01/16 00:13:59;;;;;;;1.17;1.07;;;4.50;97.30;;;;;;4998080;28;20204;-84
2023/01/16 00:16:25;;;;;;;1.50;1.40;;;4.50;97.30;;;;;;4998162;28;20193;-84
2023/01/16 00:18:50;;;;;;;39.43;1.70;;;4.50;97.30;;;;;;4998615;28;20848;-84
2023/01/16 00:21:17;;;;;;;1.00;0.90;;;4.50;97.30;;;;;;4998804;28;20411;-84
2023/01/16 00:23:42;;;;;;;1.10;1.00;;;4.50;97.30;;;;;;5016182;28;20169;-84
2023/01/16 00:26:09;;;;;;;2.40;1.50;;;4.50;97.30;;;;;;4997916;28;20448;-85
2023/01/16 00:28:37;;;;;;;1.13;1.03;;;4.50;97.30;;;;;;4998132;28;20539;-83
2023/01/16 00:31:04;;;;;;;1.30;1.20;;;4.50;97.30;;;;;;5015285;28;20431;-85
2023/01/16 00:33:30;;;;;;;1.20;1.10;;;4.60;97.30;;;;;;4998242;28;20455;-83
2023/01/16 00:35:55;;;;;;;1.47;1.40;;;4.60;97.30;;;;;;4997628;28;20436;-82
2023/01/16 00:38:21;;;;;;;1.10;1.00;;;4.60;97.30;;;;;;4998277;28;20428;-83
2023/01/16 00:40:46;;;;;;;1.00;0.90;;;4.60;97.30;;;;;;5015821;28;20264;-84
2023/01/16 00:43:12;;;;;;;1.20;1.10;;;4.60;97.30;;;;;;4998047;28;20204;-84
2023/01/16 00:45:39;;;;;;;1.20;1.10;;;4.70;97.30;;;;;;4997171;28;20268;-83
2023/01/16 00:48:05;;;;;;;1.67;1.57;;;4.70;97.30;;;;;;4999140;28;20699;-84
2023/01/16 00:50:30;;;;;;;1.87;1.73;;;4.70;97.30;;;;;;4999120;28;20448;-84
2023/01/16 00:52:56;;;;;;;1.10;1.00;;;4.70;97.30;;;;;;4999128;28;20431;-84
2023/01/16 00:55:21;;;;;;;1.00;0.90;;;4.70;97.30;;;;;;4999265;28;20715;-85
2023/01/16 00:57:47;;;;;;;1.67;1.57;;;4.70;97.30;;;;;;4998481;28;20173;-84
2023/01/16 01:00:13;;;;;;;1.00;0.90;;;4.70;97.30;;;;;;4999173;28;20553;-84
2023/01/16 01:02:38;;;;;;;1.10;1.00;;;4.70;97.30;;;;;;5016719;28;20177;-84
2023/01/16 01:05:06;;;;;;;1.83;1.73;;;4.70;97.30;;;;;;4999439;28;20543;-84
2023/01/16 01:07:31;;;;;;;1.23;1.13;;;4.70;97.30;;;;;;4999615;28;20216;-83
2023/01/16 01:09:57;;;;;;;1.97;1.87;;;4.70;97.30;;;;;;4999144;28;20424;-83
2023/01/16 01:12:23;;;;;;;1.10;1.00;;;4.70;97.30;;;;;;4998443;28;20820;-85
2023/01/16 01:14:49;;;;;;;1.27;1.17;;;4.70;97.30;;;;;;5016827;28;20263;-84
2023/01/16 01:17:14;;;;;;;1.00;0.90;;;4.70;97.30;;;;;;5016011;28;20197;-84
2023/01/16 01:19:40;;;;;;;25.43;2.30;;;4.70;97.30;;;;;;4999740;28;20447;-84
2023/01/16 01:22:05;;;;;;;1.00;0.90;;;4.70;97.30;;;;;;4999944;28;20272;-84
2023/01/16 01:24:31;;;;;;;1.00;0.90;;;4.70;97.30;;;;;;4999941;28;20189;-82
2023/01/16 01:26:56;;;;;;;1.23;1.13;;;4.80;97.30;;;;;;4999736;28;20205;-84
2023/01/16 01:29:22;;;;;;;1.30;1.20;;;4.80;97.30;;;;;;5017986;28;20179;-85
2023/01/16 01:31:47;;;;;;;1.00;0.90;;;4.80;97.30;;;;;;5019195;28;20185;-84
2023/01/16 01:34:13;;;;;;;0.93;0.83;;;4.80;97.30;;;;;;5027450;28;20579;-83
2023/01/16 01:36:38;;;;;;;1.00;0.90;;;4.80;97.30;;;;;;5009926;28;20201;-83
2023/01/16 01:39:04;;;;;;;1.00;0.90;;;4.80;97.30;;;;;;5003667;28;20177;-83
2023/01/16 01:41:29;;;;;;;1.10;1.00;;;4.80;97.30;;;;;;5015840;28;20173;-83
2023/01/16 01:43:56;;;;;;;0.90;0.80;;;4.80;97.30;;;;;;4997771;28;20560;-84
2023/01/16 01:48:59;;;;;;;1.00;0.90;;;4.70;97.30;;;;;;5020636;23;20543;-87
2023/01/16 01:51:38;;;;;;;1.03;0.93;;;4.70;97.30;;;;;;4978335;28;20408;-87
2023/01/16 01:54:06;;;;;;;0.80;0.70;;;4.70;97.30;;;;;;4975209;28;21183;-87
2023/01/16 01:57:15;;;;;;;1.20;1.10;;;4.70;97.30;;;;;;4977052;28;20425;-87
2023/01/16 01:59:45;;;;;;;1.00;0.90;;;4.70;97.30;;;;;;4882761;29;20512;-87
2023/01/16 02:02:16;;;;;;;1.30;1.20;;;4.60;97.30;;;;;;4898310;29;20893;-87
2023/01/16 02:04:43;;;;;;;1.10;1.00;;;4.60;97.30;;;;;;4932968;28;20452;-87
2023/01/16 02:07:11;;;;;;;1.10;1.00;;;4.50;97.30;;;;;;4959502;28;20441;-89
2023/01/16 02:09:37;;;;;;;1.10;1.00;;;4.40;97.30;;;;;;4976958;28;20417;-86
2023/01/16 02:12:07;;;;;;;0.90;0.80;;;4.40;97.30;;;;;;4976755;28;20410;-87
2023/01/16 02:14:38;;;;;;;1.27;1.00;;;4.30;97.30;;;;;;4959475;28;20800;-87
2023/01/16 02:19:58;;;;;;;5.00;2.47;;;4.30;97.30;;;;;;4976782;28;20453;-87
2023/01/16 02:22:51;;;;;;;1.60;1.50;;;4.20;97.30;;;;;;4959182;28;20468;-86
2023/01/16 02:25:53;;;;;;;1.30;1.20;;;4.10;97.30;;;;;;4959286;28;20418;-87
2023/01/16 02:28:19;;;;;;;1.77;1.40;;;4.10;97.30;;;;;;4959249;28;20437;-86
2023/01/16 02:31:22;;;;;;;2.40;1.40;;;4.00;97.30;;;;;;4973853;28;20553;-87
2023/01/16 02:34:02;;;;;;;1.00;0.90;;;4.00;97.30;;;;;;4974400;28;20221;-86
2023/01/16 02:36:30;;;;;;;7.50;2.03;;;4.00;97.30;;;;;;4939816;28;20407;-85
2023/01/16 02:39:14;;;;;;;1.10;1.00;;;3.90;97.30;;;;;;4957011;29;20964;-88
2023/01/16 02:41:57;;;;;;;0.90;0.80;;;3.90;97.30;;;;;;4939718;29;20433;-87
2023/01/16 02:44:36;;;;;;;1.00;0.90;;;3.80;97.30;;;;;;4939899;29;20423;-86
2023/01/16 02:47:17;;;;;;;1.10;1.00;;;3.80;97.30;;;;;;4939362;29;20861;-87
2023/01/16 02:50:10;;;;;;;2.40;1.10;;;3.70;97.30;;;;;;4939698;29;20438;-87
2023/01/16 02:52:45;;;;;;;1.10;1.00;;;3.70;97.30;;;;;;4919439;29;20442;-87
2023/01/16 02:55:26;;;;;;;1.10;1.00;;;3.60;97.30;;;;;;4939233;29;20473;-87
2023/01/16 02:57:57;;;;;;;1.33;1.23;;;3.60;97.30;;;;;;4939326;29;20437;-88
2023/01/16 03:00:23;;;;;;;1.10;1.00;;;3.60;97.30;;;;;;4939575;29;20418;-87
2023/01/16 03:02:48;;;;;;;1.20;1.10;;;3.50;97.30;;;;;;4939384;29;20466;-87
2023/01/16 03:05:14;;;;;;;1.10;1.00;;;3.50;97.30;;;;;;4939114;29;20921;-87
2023/01/16 03:08:08;;;;;;;1.20;1.10;;;3.50;97.30;;;;;;4938280;29;20198;-86
2023/01/16 03:11:04;;;;;;;1.00;0.90;;;3.50;97.30;;;;;;4939165;29;20222;-85
2023/01/16 03:13:47;;;;;;;1.20;1.10;;;3.40;97.30;;;;;;4938939;29;20461;-87
2023/01/16 03:16:36;;;;;;;1.00;0.90;;;3.40;97.30;;;;;;4938914;29;20408;-86
2023/01/16 03:19:27;;;;;;;1.00;0.90;;;3.40;97.30;;;;;;4939194;29;20499;-87
2023/01/16 03:22:03;;;;;;;1.03;0.93;;;3.40;97.30;;;;;;4938943;29;20408;-87
2023/01/16 03:25:09;;;;;;;1.73;1.63;;;3.30;97.30;;;;;;4938934;29;20521;-86
2023/01/16 03:27:47;;;;;;;1.10;1.00;;;3.20;97.30;;;;;;4892530;29;20451;-86
2023/01/16 03:30:24;;;;;;;1.10;1.00;;;3.20;97.30;;;;;;4938951;29;20885;-87
2023/01/16 03:32:56;;;;;;;1.10;1.00;;;3.10;97.30;;;;;;4938904;29;20407;-87
2023/01/16 03:35:49;;;;;;;1.67;1.57;;;3.10;97.30;;;;;;4955182;28;20593;-87
2023/01/16 03:38:17;;;;;;;1.70;1.60;;;3.10;97.30;;;;;;4957626;28;20982;-86
2023/01/16 03:40:46;;;;;;;2.47;1.40;;;3.00;97.30;;;;;;4971993;28;20382;-87
2023/01/16 03:43:29;;;;;;;1.70;1.60;;;3.00;97.30;;;;;;4947342;28;20921;-86
2023/01/16 03:46:12;;;;;;;1.40;1.30;;;3.00;97.30;;;;;;4969400;28;20406;-86
2023/01/16 03:49:09;;;;;;;1.10;1.00;;;3.00;97.30;;;;;;4974233;28;20458;-86
2023/01/16 03:51:40;;;;;;;1.10;1.00;;;3.00;97.30;;;;;;4937360;29;20835;-86
2023/01/16 03:54:35;;;;;;;1.10;1.00;;;3.00;97.30;;;;;;4951957;28;20482;-88
2023/01/16 03:57:18;;;;;;;1.00;0.90;;;3.00;97.30;;;;;;4956597;28;20540;-87
2023/01/16 03:59:46;;;;;;;1.20;1.10;;;3.00;97.30;;;;;;4974533;28;20413;-86
2023/01/16 04:02:23;;;;;;;1.00;0.90;;;3.00;97.30;;;;;;4956330;28;21254;-86
2023/01/16 04:05:06;;;;;;;1.67;1.10;;;3.10;97.30;;;;;;4957430;28;20955;-87
2023/01/16 04:07:43;;;;;;;1.20;1.10;;;3.00;97.30;;;;;;4957252;28;20442;-88
2023/01/16 04:10:33;;;;;;;1.43;1.20;;;3.00;97.30;;;;;;4957222;28;20417;-87
2023/01/16 04:13:22;;;;;;;1.20;1.10;;;3.00;97.30;;;;;;4956796;28;20840;-87
2023/01/16 04:15:52;;;;;;;1.27;1.17;;;3.00;97.30;;;;;;4957174;28;21059;-87
2023/01/16 04:18:21;;;;;;;1.10;1.00;;;3.00;97.30;;;;;;4955978;28;20462;-87
2023/01/16 04:20:49;;;;;;;1.10;1.00;;;2.90;97.30;;;;;;4973094;28;20414;-88
2023/01/16 04:23:16;;;;;;;1.40;1.30;;;2.90;97.30;;;;;;4982139;28;20414;-87
2023/01/16 04:25:42;;;;;;;6.90;2.03;;;2.80;97.30;;;;;;4956776;28;20469;-86
2023/01/16 04:28:07;;;;;;;3.27;1.93;;;2.80;97.30;;;;;;4956485;28;20949;-85
2023/01/16 04:30:33;;;;;;;1.20;1.10;;;2.80;97.30;;;;;;4956796;28;20460;-86
2023/01/16 04:33:01;;;;;;;3.37;2.30;;;2.80;97.30;;;;;;4973457;28;20179;-86
2023/01/16 04:35:27;;;;;;;1.23;1.13;;;2.80;97.30;;;;;;4956740;28;20179;-86
2023/01/16 04:37:53;;;;;;;1.10;1.00;;;2.90;97.30;;;;;;4956452;28;20438;-87
2023/01/16 04:40:18;;;;;;;1.20;1.10;;;2.90;97.30;;;;;;4956601;28;20178;-87
2023/01/16 04:42:44;;;;;;;1.30;1.20;;;2.90;97.30;;;;;;4956868;28;20182;-87
2023/01/16 04:45:10;;;;;;;1.20;1.10;;;3.00;97.30;;;;;;4956746;28;20177;-86
2023/01/16 04:47:35;;;;;;;1.70;1.60;;;3.00;97.30;;;;;;4955816;28;20727;-86
2023/01/16 04:50:01;;;;;;;1.00;0.90;;;3.10;97.30;;;;;;4956113;28;20599;-85
2023/01/16 04:52:26;;;;;;;1.57;1.47;;;3.10;97.30;;;;;;4955872;28;20179;-86
2023/01/16 04:54:52;;;;;;;1.37;1.37;;;3.20;97.30;;;;;;4973322;28;20209;-85
2023/01/16 04:57:17;;;;;;;1.30;1.20;;;3.20;97.30;;;;;;4944278;28;20199;-85
2023/01/16 04:59:43;;;;;;;15.03;2.13;;;3.30;97.30;;;;;;4937157;29;20677;-87
2023/01/16 05:02:09;;;;;;;1.30;1.20;;;3.40;97.30;;;;;;4951773;28;20608;-88
2023/01/16 05:04:34;;;;;;;1.23;1.13;;;3.40;97.30;;;;;;4956943;28;20186;-87
2023/01/16 05:07:00;;;;;;;1.20;1.10;;;3.40;97.30;;;;;;4956343;28;20274;-86
2023/01/16 05:09:25;;;;;;;2.57;1.40;;;3.50;97.30;;;;;;4956309;28;20187;-86
2023/01/16 05:11:51;;;;;;;1.73;1.57;;;3.50;97.30;;;;;;4973990;28;20248;-87
2023/01/16 05:14:16;;;;;;;1.00;0.90;;;3.50;97.30;;;;;;4956215;28;20206;-87
2023/01/16 05:16:42;;;;;;;1.10;1.00;;;3.50;97.30;;;;;;4956320;28;20193;-87
2023/01/16 05:19:08;;;;;;;1.10;1.00;;;3.50;97.30;;;;;;4956043;28;20170;-86
2023/01/16 05:21:33;;;;;;;1.17;1.07;;;3.50;97.30;;;;;;4974163;28;20182;-87
2023/01/16 05:23:59;;;;;;;1.00;0.90;;;3.50;97.30;;;;;;4956102;28;20414;-86
2023/01/16 05:26:24;;;;;;;1.87;1.77;;;3.50;97.30;;;;;;4956344;28;20262;-87
2023/01/16 05:28:50;;;;;;;1.10;1.00;;;3.50;97.30;;;;;;4955874;28;20328;-87
2023/01/16 05:31:16;;;;;;;1.17;1.07;;;3.50;97.30;;;;;;4958676;28;20179;-87
2023/01/16 05:33:42;;;;;;;1.10;1.00;;;3.50;97.30;;;;;;4959909;28;20742;-88
2023/01/16 05:36:08;;;;;;;1.20;1.10;;;3.60;97.30;;;;;;4959770;28;20429;-86
2023/01/16 05:38:33;;;;;;;1.00;0.90;;;3.60;97.30;;;;;;4959607;28;20571;-86
2023/01/16 05:40:59;;;;;;;2.93;1.70;;;3.60;97.30;;;;;;4959878;28;20817;-85
2023/01/16 05:43:25;;;;;;;9.10;1.53;;;3.60;97.30;;;;;;4959626;28;20253;-87
2023/01/16 05:45:50;;;;;;;19.63;2.90;;;3.60;97.30;;;;;;4959592;28;20189;-87
2023/01/16 05:48:16;;;;;;;1.30;1.20;;;3.60;97.30;;;;;;4959281;28;20470;-87
2023/01/16 05:50:41;;;;;;;1.10;1.00;;;3.60;97.30;;;;;;4977169;28;20646;-86
2023/01/16 05:53:07;;;;;;;1.00;0.90;;;3.60;97.30;;;;;;4959826;28;20186;-88
2023/01/16 05:55:43;;;;;;;1.10;1.00;;;3.60;97.30;;;;;;4959936;28;20708;-87
2023/01/16 05:58:10;;;;;;;1.10;1.10;;;3.60;97.30;;;;;;4959809;28;20240;-86
2023/01/16 06:00:48;;;;;;;1.03;0.93;;;3.60;97.30;;;;;;4959760;28;20500;-87
2023/01/16 06:03:15;;;;;;;1.30;1.20;;;3.60;97.30;;;;;;4959765;28;20428;-87
2023/01/16 06:05:41;;;;;;;1.30;1.20;;;3.60;97.30;;;;;;4977114;28;20410;-87
2023/01/16 06:08:07;;;;;;;1.10;1.10;;;3.60;97.30;;;;;;4959626;28;20790;-86
2023/01/16 06:10:32;;;;;;;1.10;1.00;;;3.60;97.30;;;;;;4959138;28;20944;-87
2023/01/16 06:12:59;;;;;;;1.20;1.10;;;3.60;97.30;;;;;;4959661;28;20279;-86
2023/01/16 06:15:25;;;;;;;1.10;1.00;;;3.60;97.30;;;;;;4959711;28;20199;-86
2023/01/16 06:17:52;;;;;;;2.30;1.13;;;3.60;97.30;;;;;;4976853;28;20488;-87
2023/01/16 06:20:17;;;;;;;1.00;0.90;;;3.60;97.30;;;;;;4959284;28;20256;-86
2023/01/16 06:22:44;;;;;;;1.13;1.03;;;3.60;97.30;;;;;;4959456;28;20868;-87
2023/01/16 06:25:09;;;;;;;5.13;1.97;;;3.50;97.30;;;;;;4959426;28;20209;-87
2023/01/16 06:27:35;;;;;;;1.00;0.90;;;3.50;97.30;;;;;;4959283;28;20967;-86
2023/01/16 06:30:00;;;;;;;1.00;0.90;;;3.50;97.30;;;;;;4959110;28;20812;-87
2023/01/16 06:32:26;;;;;;;11.53;1.70;;;3.50;97.30;;;;;;4958936;28;20245;-87
2023/01/16 06:34:51;;;;;;;1.20;1.10;;;3.50;97.30;;;;;;4958643;28;20708;-86
2023/01/16 06:37:17;;;;;;;1.00;0.90;;;3.50;97.30;;;;;;4957449;28;20208;-86
2023/01/16 06:39:42;;;;;;;1.10;1.00;;;3.40;97.30;;;;;;4969095;28;20198;-87
2023/01/16 06:42:09;;;;;;;1.10;1.00;;;3.40;97.30;;;;;;4969241;28;20218;-86
2023/01/16 06:44:34;;;;;;;1.20;1.10;;;3.40;97.30;;;;;;4956916;28;20188;-87
2023/01/16 06:47:01;;;;;;;1.30;1.20;;;3.40;97.30;;;;;;4944851;29;20530;-87
2023/01/16 06:49:27;;;;;;;5.67;1.67;;;3.40;97.30;;;;;;4953894;29;20198;-89
2023/01/16 06:51:52;;;;;;;1.60;1.50;;;3.40;97.30;;;;;;4938143;29;20489;-88
2023/01/16 06:54:18;;;;;;;1.20;1.10;;;3.50;97.30;;;;;;4937902;29;20207;-86
2023/01/16 06:56:43;;;;;;;1.00;0.90;;;3.50;97.30;;;;;;4955203;28;20675;-87
2023/01/16 06:59:09;;;;;;;1.10;1.00;;;3.50;97.30;;;;;;4937874;29;20423;-87
2023/01/16 07:01:34;;;;;;;7.70;1.57;;;3.50;97.30;;;;;;4950443;28;20208;-87
2023/01/16 07:04:00;;;;;;;1.00;0.90;;;3.60;97.30;;;;;;4952943;28;20189;-87
2023/01/16 07:06:26;;;;;;;2.63;2.37;;;3.60;97.30;;;;;;4960177;28;20189;-88
2023/01/16 07:08:52;;;;;;;1.20;1.10;;;3.60;97.30;;;;;;4952301;28;20285;-87
2023/01/16 07:11:18;;;;;;;1.27;1.20;;;3.60;97.30;;;;;;4950298;28;20612;-87
2023/01/16 07:13:44;;;;;;;2.90;2.70;;;3.60;97.30;;;;;;4956857;28;20207;-87
2023/01/16 07:24:37;;;;;;;1.20;1.10;;;3.60;97.30;;;;;;4955708;29;20458;-88
2023/01/16 07:27:05;;;;;;;1.10;1.00;;;3.60;97.30;;;;;;4938500;29;20446;-86
2023/01/16 07:29:32;;;;;;;1.30;1.20;;;3.60;97.30;;;;;;4940545;28;21031;-86
2023/01/16 07:32:00;;;;;;;1.40;1.30;;;3.60;97.30;;;;;;4973880;28;20488;-86
2023/01/16 07:34:26;;;;;;;1.10;1.00;;;3.60;97.30;;;;;;4957339;28;20533;-86
2023/01/16 07:36:51;;;;;;;1.20;1.10;;;3.60;97.30;;;;;;4974859;28;20427;-86
2023/01/16 07:39:17;;;;;;;1.10;1.00;;;3.60;97.30;;;;;;4959498;28;20183;-85
2023/01/16 07:41:42;;;;;;;1.10;1.00;;;3.60;97.30;;;;;;4974770;28;20661;-86
2023/01/16 07:44:09;;;;;;;0.90;0.80;;;3.60;97.30;;;;;;4957098;28;20249;-87
2023/01/16 07:46:35;;;;;;;1.10;1.00;;;3.60;97.30;;;;;;4956753;28;20182;-86
2023/01/16 07:49:00;;;;;;;1.17;1.07;;;3.60;97.30;;;;;;5010685;23;20554;-83
2023/01/16 07:51:26;;;;;;;1.20;1.10;;;3.60;97.30;;;;;;5016903;28;20594;-84
2023/01/16 07:53:51;;;;;;;1.23;1.13;;;3.50;97.30;;;;;;5015248;28;20211;-86
2023/01/16 07:56:17;;;;;;;4.73;1.47;;;3.50;97.30;;;;;;5016767;28;20209;-87
2023/01/16 07:58:43;;;;;;;1.57;1.47;;;3.50;97.30;;;;;;5003844;28;20194;-85
2023/01/16 08:01:09;;;;;;;2.50;1.23;;;3.60;97.30;;;;;;4980360;28;20644;-86
2023/01/16 08:03:35;;;;;;;1.30;1.20;;;3.60;97.30;;;;;;4979634;28;20205;-86
2023/01/16 08:06:02;;;;;;;1.60;1.50;;;3.70;97.30;;;;;;4979920;28;20421;-84
2023/01/16 08:08:28;;;;;;;1.20;1.10;;;3.80;97.30;;;;;;4979282;28;20448;-85
2023/01/16 08:10:59;;;;;;;1.40;1.30;;;3.80;97.30;;;;;;4979638;28;20429;-87
2023/01/16 08:13:25;;;;;;;1.20;1.10;;;3.90;97.30;;;;;;4980226;28;20927;-85
2023/01/16 08:15:51;;;;;;;1.20;1.10;;;3.90;97.30;;;;;;4997598;28;20429;-85
2023/01/16 08:18:18;;;;;;;1.20;1.10;;;3.90;97.30;;;;;;4997014;28;20483;-84
2023/01/16 08:20:44;;;;;;;1.07;0.97;;;4.00;97.30;;;;;;4979885;28;20245;-85
2023/01/16 08:23:11;;;;;;;1.10;1.00;;;4.00;97.30;;;;;;4979693;28;20417;-84
2023/01/16 08:25:37;;;;;;;1.10;1.00;;;4.10;97.30;;;;;;4980063;28;20412;-85
2023/01/16 08:28:02;;;;;;;2.23;2.03;;;4.20;97.30;;;;;;4979452;28;20506;-84
2023/01/16 08:30:28;;;;;;;1.53;1.43;;;4.20;97.30;;;;;;4979571;28;20646;-84
2023/01/16 08:32:58;;;;;;;1.30;1.20;;;4.30;97.30;;;;;;4979826;28;20196;-85
2023/01/16 08:35:23;;;;;;;1.20;1.10;;;4.40;97.30;;;;;;4979191;28;20209;-87
2023/01/16 08:37:49;;;;;;;1.30;1.20;;;4.40;97.30;;;;;;4979658;28;20499;-84
2023/01/16 08:40:15;;;;;;;1.10;1.00;;;4.50;97.30;;;;;;4979089;28;20178;-85
2023/01/16 08:53:40;;;;;;;1.20;1.10;;;4.90;97.30;;;;;;4977781;28;20520;-85
2023/01/16 08:56:06;;;;;;;1.00;0.90;;;4.90;97.30;;;;;;4976465;28;20500;-84
2023/01/16 08:58:32;;;;;;;1.07;0.97;;;5.00;97.30;;;;;;4959747;28;20205;-85
2023/01/16 09:00:57;;;;;;;1.00;0.90;;;5.10;97.30;;;;;;4976385;28;20426;-87
2023/01/16 09:03:23;;;;;;;1.10;1.00;;;5.10;97.30;;;;;;4975394;28;20189;-85
2023/01/16 09:05:48;;;;;;;1.23;1.13;;;5.20;97.30;;;;;;4974472;28;20182;-85
2023/01/16 09:08:14;;;;;;;1.00;0.90;;;5.20;97.30;;;;;;4974190;28;20218;-88
2023/01/16 09:10:39;;;;;;;1.10;1.00;;;5.20;97.30;;;;;;4974226;28;20183;-85
2023/01/16 09:15:49;;;;;;;1.10;1.00;;;5.30;97.30;;;;;;4976413;28;20212;-86
2023/01/16 09:18:15;;;;;;;1.10;1.00;;;5.40;97.20;;;;;;4975524;28;20805;-85
2023/01/16 09:20:40;;;;;;;1.10;1.00;;;5.40;97.20;;;;;;4975656;28;20535;-84
2023/01/16 09:23:06;;;;;;;1.10;1.00;;;5.40;97.20;;;;;;4975960;28;20182;-86
2023/01/16 09:25:32;;;;;;;1.63;1.53;;;5.50;96.80;;;;;;4976669;28;20186;-85
2023/01/16 09:27:59;;;;;;;1.00;0.90;;;5.50;96.70;;;;;;4961153;28;20225;-85
2023/01/16 09:30:26;;;;;;;1.57;1.47;;;5.50;96.60;;;;;;4971890;28;20418;-87
2023/01/16 09:32:51;;;;;;;1.20;1.10;;;5.60;96.60;;;;;;4971525;28;20406;-86
2023/01/16 09:35:17;;;;;;;1.30;1.20;;;5.60;96.50;;;;;;4991556;28;20835;-85
2023/01/16 09:37:44;;;;;;;1.40;1.30;;;5.70;96.50;;;;;;4977292;28;20190;-85
2023/01/16 09:40:16;;;;;;;1.20;1.10;;;5.80;96.60;;;;;;4978235;28;20309;-85
2023/01/16 09:45:32;;;;;;;12.70;1.30;;;5.90;96.30;;;;;;4995866;28;20496;-85
2023/01/16 09:48:12;;;;;;;1.20;1.10;;;5.90;96.20;;;;;;4973753;28;20849;-85
2023/01/16 09:50:45;;;;;;;1.20;1.10;;;5.90;95.90;;;;;;4974614;28;20436;-87
2023/01/16 09:59:12;;;;;;;18.87;1.67;;;6.10;95.40;;;;;;4975051;28;20428;-88
2023/01/16 10:01:43;;;;;;;1.00;0.90;;;6.10;95.40;;;;;;4963256;28;20568;-87
2023/01/16 10:04:16;;;;;;;1.10;1.00;;;6.20;95.60;;;;;;4953833;29;20513;-84
2023/01/16 10:07:06;;;;;;;1.47;1.37;;;6.30;95.40;;;;;;4955141;29;20478;-85
2023/01/16 10:10:01;;;;;;;1.10;1.00;;;6.40;94.60;;;;;;4954912;29;20427;-85
2023/01/16 10:12:35;;;;;;;1.23;1.13;;;6.40;94.60;;;;;;4954579;29;20419;-85
2023/01/16 10:15:19;;;;;;;1.10;1.00;;;6.40;94.70;;;;;;4954974;29;20476;-85
2023/01/16 10:18:13;;;;;;;1.00;0.90;;;6.50;94.50;;;;;;4956917;28;20440;-85
2023/01/16 10:20:58;;;;;;;1.13;1.03;;;6.60;94.30;;;;;;4941312;29;20411;-85
2023/01/16 10:23:48;;;;;;;0.97;0.87;;;6.70;94.30;;;;;;4957239;29;20432;-85
2023/01/16 10:26:26;;;;;;;1.53;1.20;;;6.80;94.10;;;;;;4958581;29;20424;-87
2023/01/16 10:29:20;;;;;;;1.00;0.90;;;6.90;93.50;;;;;;4959212;28;20537;-85
2023/01/16 10:31:57;;;;;;;2.83;2.20;;;6.90;93.20;;;;;;4958212;29;20913;-86
2023/01/16 10:34:27;;;;;;;1.00;0.90;;;7.00;93.10;;;;;;4961727;28;20453;-86
2023/01/16 10:36:57;;;;;;;1.00;0.90;;;7.20;93.50;;;;;;4977508;28;20432;-85
2023/01/16 10:39:33;;;;;;;1.10;1.00;;;7.20;92.50;;;;;;4979277;28;20430;-85
2023/01/16 10:50:48;;;;;;;1.40;1.30;;;7.20;92.10;;;;;;4998263;28;20415;-85
2023/01/16 10:53:14;;;;;;;1.00;0.90;;;7.30;92.50;;;;;;4980449;28;20728;-85
2023/01/16 10:55:44;;;;;;;2.17;1.20;;;7.40;92.30;;;;;;4997089;28;20220;-85
2023/01/16 10:58:21;;;;;;;0.90;0.80;;;7.40;91.90;;;;;;4979943;28;20532;-87
2023/01/16 11:00:47;;;;;;;1.00;0.90;;;7.40;91.50;;;;;;4979926;28;20866;-85
2023/01/16 11:03:19;;;;;;;0.97;0.87;;;7.40;91.80;;;;;;4979846;28;20458;-84
2023/01/16 11:05:44;;;;;;;1.40;1.30;;;7.40;91.70;;;;;;4980033;28;20425;-84
2023/01/16 11:08:21;;;;;;;0.83;0.73;;;7.50;91.70;;;;;;4979656;28;20448;-87
2023/01/16 11:10:48;;;;;;;1.37;1.30;;;7.70;91.00;;;;;;4979393;28;20229;-85
2023/01/16 11:19:22;;;;;;;9.23;3.93;;;7.90;90.70;;;;;;4996923;28;20515;-85
2023/01/16 11:21:53;;;;;;;1.10;1.00;;;7.80;90.60;;;;;;4975364;28;20432;-85
2023/01/16 11:24:22;;;;;;;1.47;1.37;;;7.80;91.10;;;;;;4959056;28;20424;-85
2023/01/16 11:26:53;;;;;;;1.20;1.10;;;7.90;90.80;;;;;;4976421;28;20424;-85
2023/01/16 11:29:23;;;;;;;1.43;1.17;;;8.00;90.40;;;;;;4958861;28;20477;-86
2023/01/16 11:31:56;;;;;;;1.10;1.00;;;8.10;90.00;;;;;;4959228;28;20929;-85
2023/01/16 11:34:26;;;;;;;1.40;1.30;;;8.00;90.00;;;;;;4962531;28;20547;-87
2023/01/16 11:36:58;;;;;;;1.00;0.90;;;7.90;90.00;;;;;;4979034;28;20416;-86
2023/01/16 11:39:28;;;;;;;1.30;1.20;;;7.90;90.00;;;;;;4978240;28;21050;-85
2023/01/16 11:41:57;;;;;;;0.93;0.83;;;8.00;90.30;;;;;;4978888;28;20431;-87
2023/01/16 11:47:21;;;;;;;2.03;1.93;;;8.20;89.50;;;;;;4996027;28;20455;-85
2023/01/16 11:49:52;;;;;;;1.43;1.33;;;8.20;89.60;;;;;;4977954;28;20474;-85
2023/01/16 11:52:30;;;;;;;1.00;0.90;;;8.30;89.80;;;;;;4978796;28;20468;-85
2023/01/16 11:55:04;;;;;;;1.10;1.00;;;8.50;89.40;;;;;;4977966;28;20492;-86
2023/01/16 11:57:37;;;;;;;1.17;1.10;;;8.40;88.40;;;;;;4978359;28;20471;-85
2023/01/16 12:00:30;;;;;;;1.00;0.90;;;8.30;88.40;;;;;;4979322;28;20417;-85
2023/01/16 12:03:15;;;;;;;1.00;0.90;;;8.30;89.00;;;;;;4978529;28;20419;-86
2023/01/16 12:06:03;;;;;;;1.00;0.90;;;8.40;88.30;;;;;;4978347;28;20456;-85
2023/01/16 12:09:00;;;;;;;1.00;0.90;;;8.40;86.80;;;;;;4978029;28;20432;-84
2023/01/16 12:11:45;;;;;;;1.43;1.33;;;8.40;86.90;;;;;;4977628;28;20417;-85
2023/01/16 12:14:32;;;;;;;5.03;2.50;;;8.40;87.20;;;;;;4995402;28;20511;-85
2023/01/16 12:17:30;;;;;;;1.23;1.13;;;8.30;86.80;;;;;;4977863;28;20932;-84
2023/01/16 12:20:18;;;;;;;1.07;0.97;;;8.20;87.20;;;;;;4977639;28;20764;-85
2023/01/16 12:23:08;;;;;;;1.33;1.23;;;8.10;87.20;;;;;;4977030;28;20413;-84
2023/01/16 12:26:01;;;;;;;1.00;0.90;;;8.10;87.70;;;;;;4977611;28;20424;-86
2023/01/16 12:28:29;;;;;;;3.73;1.27;;;8.30;87.80;;;;;;4976721;28;20468;-87
2023/01/16 12:31:17;;;;;;;1.00;0.90;;;8.30;87.20;;;;;;4994366;28;20978;-87
2023/01/16 12:34:02;;;;;;;1.00;0.90;;;8.30;87.30;;;;;;4976790;28;20496;-87
2023/01/16 12:36:49;;;;;;;1.00;0.90;;;8.50;87.80;;;;;;4977543;28;20504;-86
2023/01/16 12:39:49;;;;;;;1.10;1.00;;;8.40;86.80;;;;;;4977384;28;20437;-85
2023/01/16 12:45:47;;;;;;;1.00;0.90;;;8.10;87.90;;;;;;4994734;28;20435;-85
2023/01/16 12:48:44;;;;;;;1.00;0.90;;;7.90;88.20;;;;;;4994875;28;20464;-85
2023/01/16 12:51:27;;;;;;;1.00;0.90;;;7.80;88.80;;;;;;4977487;28;20947;-86
2023/01/16 12:54:07;;;;;;;1.13;1.03;;;7.70;89.20;;;;;;4995725;28;20492;-85
2023/01/16 12:57:07;;;;;;;1.10;1.00;;;7.80;89.00;;;;;;4977388;28;20895;-85
2023/01/16 12:59:56;;;;;;;2.37;1.77;;;7.90;88.90;;;;;;4977236;28;20767;-85
2023/01/16 13:02:36;;;;;;;0.90;0.80;;;7.90;89.10;;;;;;4977152;28;20821;-86
2023/01/16 13:05:17;;;;;;;1.03;0.93;;;7.90;88.40;;;;;;4977034;28;20475;-87
2023/01/16 13:07:56;;;;;;;0.90;0.80;;;7.90;89.10;;;;;;4976833;28;20437;-86
2023/01/16 13:13:27;;;;;;;0.90;0.80;;;7.90;89.60;;;;;;4994827;28;20464;-85
2023/01/16 13:16:09;;;;;;;1.17;1.07;;;7.80;89.10;;;;;;4976960;28;20424;-85
2023/01/16 13:18:55;;;;;;;0.97;0.87;;;7.70;89.00;;;;;;4977536;28;20506;-85
2023/01/16 13:21:27;;;;;;;1.00;0.90;;;7.60;89.00;;;;;;4977283;28;20460;-85
2023/01/16 13:23:57;;;;;;;1.00;0.90;;;7.50;90.10;;;;;;4994353;28;20401;-87
2023/01/16 13:26:24;;;;;;;1.20;1.10;;;7.50;90.40;;;;;;4978619;28;20417;-87
2023/01/16 13:29:27;;;;;;;1.00;0.90;;;7.50;90.70;;;;;;4989805;28;20505;-86
2023/01/16 13:31:58;;;;;;;0.90;0.80;;;7.40;91.10;;;;;;4990441;28;20516;-87
2023/01/16 13:34:30;;;;;;;4.37;1.00;;;7.30;91.60;;;;;;4981221;28;20449;-86
2023/01/16 13:37:21;;;;;;;1.00;0.90;;;7.30;92.00;;;;;;4978298;28;20512;-86
2023/01/16 13:40:12;;;;;;;1.73;1.27;;;7.20;92.00;;;;;;4977397;28;20440;-85
2023/01/16 13:42:42;;;;;;;4.33;1.73;;;7.10;92.30;;;;;;4976869;28;20509;-86
2023/01/16 13:45:48;;;;;;;2.30;1.10;;;7.10;92.50;;;;;;4977019;28;20413;-85
2023/01/16 13:48:30;;;;;;;2.13;1.97;;;7.10;92.60;;;;;;5012032;23;20492;-87
2023/01/16 13:51:02;;;;;;;1.00;0.90;;;7.10;92.90;;;;;;4995449;28;20497;-86
2023/01/16 13:53:40;;;;;;;1.00;0.90;;;7.00;92.70;;;;;;4999024;28;20427;-87
2023/01/16 13:56:20;;;;;;;3.90;1.73;;;7.00;92.50;;;;;;5016596;28;20412;-87
2023/01/16 13:59:15;;;;;;;1.60;1.50;;;7.00;92.30;;;;;;4991458;28;20466;-86
2023/01/16 14:01:53;;;;;;;2.90;1.40;;;6.90;92.20;;;;;;4999858;28;20412;-89
2023/01/16 14:04:19;;;;;;;1.07;0.97;;;6.90;92.30;;;;;;4999958;28;20616;-86
2023/01/16 14:10:13;;;;;;;1.00;0.90;;;6.90;92.70;;;;;;5017894;28;20463;-86
2023/01/16 14:12:58;;;;;;;1.00;0.90;;;6.90;92.70;;;;;;4999898;28;20443;-87
2023/01/16 14:19:00;;;;;;;1.13;1.03;;;6.80;92.80;;;;;;5016905;28;20501;-86
2023/01/16 14:21:42;;;;;;;1.33;1.23;;;6.80;93.10;;;;;;4998905;28;20451;-87
2023/01/16 14:24:21;;;;;;;1.00;0.90;;;6.80;93.20;;;;;;4998617;28;20477;-88
2023/01/16 14:26:59;;;;;;;1.20;1.10;;;6.80;93.40;;;;;;4999351;28;20418;-86
2023/01/16 14:29:37;;;;;;;1.00;0.90;;;6.80;93.30;;;;;;4999295;28;20440;-86
2023/01/16 14:32:33;;;;;;;1.43;1.33;;;6.80;93.50;;;;;;4998648;28;20707;-87